Saint Libory, Illinois
Current Conditions -  °F | °C
As of 10:55 PM on Thursday 30 Oct 2014 (Local Time) from KSAR Reporting Station
Broken Clouds Broken Clouds  
Wind Chill: 49°   Ceiling: 5000
Heat Index: 49°   Visibility: 10mi
Dew Point: 48°   Wind: 0mph
Humidity: 95%   Direction: NA
Pressure: 30.05"   Gusts: NA
Location:  38.36°N, 89.71°W
Report Text: KSAR 310355Z AUTO 00000KT 10SM BKN050 BKN065 10/09 A3005 RMK AO2 T00970090 401570010
Loading
Personal Weather Stations






























Interactive Weather Map
Tropical Storm Tracking
New forecast layout! Learn more

10-Day Weather Forecast

Advertisements
Track Severe Weather on mobile